Provincetown III — WDB8185 — position and weather

sailwx.info

Track history (hours):
 
Tides and Currents Weather Stations Pressure Air Temp Water Temp Dewpoint Dewpoint Depression Visibility Wind Speed Wind Dir Waves Ship Positions

Provincetown III

Owner: MYSTIC FERRY LEASING LLC, BOSTON, MA. More information available from US FCC via Universal Licensing System and Coast Guard Vessel Documentation Center.

Last reported at 2016-May-01 21:33 UTC. Time now 2016-May-02 21:17 UTC.
Position N 18°23' W 064°43'.

Length 30 m; draft 2 m.

Type: Passenger vessel. MMSI: 366954420.

Date/timePositionNaut miles runAvg speedWind from/ knotsBaromVisibWave heightAir tempDewpointWater temp
2016-May-01 21:33N 18°23' W 064°43'10 4.2
2016-May-01 19:15N 18°18' W 064°52'1515.2
2016-May-01 18:15N 18°24' W 064°37'15 8.7
2016-May-01 16:33N 18°18' W 064°52'4 2.0
2016-May-01 14:33N 18°21' W 064°48'3 2.6
2016-May-01 13:33N 18°19' W 064°50'13 0.8
2016-Apr-30 21:10N 18°24' W 064°38'1524.4
2016-Apr-30 20:33N 18°18' W 064°52'1 0.5
2016-Apr-30 19:07N 18°18' W 064°53'1425.4
2016-Apr-30 18:34N 18°23' W 064°39'9 4.3
2016-Apr-30 16:33N 18°21' W 064°47'1 0.5
2016-Apr-30 14:33N 18°20' W 064°48'11 9.3
2016-Apr-30 13:23N 18°24' W 064°37'12 6.6
2016-Apr-30 11:34N 18°20' W 064°49'13 0.9
2016-Apr-29 21:21N 18°25' W 064°37'17 7.5
2016-Apr-29 19:08N 18°18' W 064°53'1424.3
2016-Apr-29 18:33N 18°23' W 064°39'7 3.3
2016-Apr-29 16:33N 18°22' W 064°45'1 0.5
2016-Apr-29 14:33N 18°22' W 064°46'9 7.1
2016-Apr-29 13:21N 18°24' W 064°38'13 7.2
2016-Apr-29 11:33N 18°19' W 064°50'13 0.9
2016-Apr-28 21:10N 18°24' W 064°37'1524.5
2016-Apr-28 20:33N 18°18' W 064°52'0 0.2
2016-Apr-28 19:11N 18°18' W 064°52'1524.4
2016-Apr-28 18:34N 18°24' W 064°38'9 4.6
2016-Apr-28 16:34N 18°22' W 064°47'4 1.9
2016-Apr-28 14:33N 18°19' W 064°50'1311.0
2016-Apr-28 13:24N 18°24' W 064°38'13 6.9
2016-Apr-28 11:33N 18°19' W 064°50'14 1.0
2016-Apr-27 21:10N 18°24' W 064°37'1524.4
2016-Apr-27 20:33N 18°18' W 064°51'1 0.9
2016-Apr-27 19:11N 18°18' W 064°52'1524.5
2016-Apr-27 18:33N 18°24' W 064°38'8 4.1
2016-Apr-27 16:33N 18°22' W 064°46'5 2.4
2016-Apr-27 14:33N 18°19' W 064°50'12 9.8
2016-Apr-27 13:21N 18°24' W 064°38'13 7.5
2016-Apr-27 11:34N 18°18' W 064°51'14 1.0
2016-Apr-26 21:12N 18°24' W 064°38'15 7.5
2016-Apr-26 19:10N 18°18' W 064°52'1524.3
2016-Apr-26 18:34N 18°24' W 064°38'7 3.4
2016-Apr-26 16:34N 18°23' W 064°45'6 2.8
2016-Apr-26 14:32N 18°19' W 064°50'1310.9
2016-Apr-26 13:22N 18°24' W 064°38'14 7.6
2016-Apr-26 11:34N 18°19' W 064°51'14 0.9
2016-Apr-25 21:06N 18°24' W 064°38'1425.0
2016-Apr-25 20:33N 18°18' W 064°51'2 1.1
2016-Apr-25 19:11N 18°18' W 064°52'1624.4
2016-Apr-25 18:32N 18°24' W 064°37'8 4.0
2016-Apr-25 16:34N 18°23' W 064°45'4 2.0
2016-Apr-25 14:33N 18°20' W 064°49'11 9.2
2016-Apr-25 13:21N 18°24' W 064°38'12 6.7
2016-Apr-25 11:34N 18°20' W 064°49'12 0.9
2016-Apr-24 21:26N 18°24' W 064°38'15 6.7
2016-Apr-24 19:10N 18°18' W 064°53'1524.5
2016-Apr-24 18:33N 18°24' W 064°38'1313.4
2016-Apr-24 17:33N 18°18' W 064°51'0 0.4
2016-Apr-24 16:33N 18°18' W 064°52'5 2.4
2016-Apr-24 14:34N 18°21' W 064°47'5 4.8
2016-Apr-24 13:33N 18°18' W 064°52'15 0.9
2016-Apr-23 21:10N 18°24' W 064°37'1423.1
2016-Apr-23 20:34N 18°18' W 064°51'2 0.5
2016-Apr-23 17:09N 18°18' W 064°53'1424.2
2016-Apr-23 16:34N 18°23' W 064°39'1413.5
2016-Apr-23 15:33N 18°18' W 064°52'3 3.2
2016-Apr-23 14:33N 18°20' W 064°49'1210.9
2016-Apr-23 13:30N 18°24' W 064°38'11 5.8
2016-Apr-23 11:34N 18°20' W 064°49'11 0.8
2016-Apr-22 21:14N 18°24' W 064°38'15 7.3
2016-Apr-22 19:09N 18°18' W 064°53'1524.8
2016-Apr-22 18:34N 18°23' W 064°38'7 3.7
2016-Apr-22 16:33N 18°22' W 064°46'2 1.1
2016-Apr-22 14:34N 18°23' W 064°44'2 2.2
2016-Apr-22 13:34N 18°23' W 064°41'10 5.1
2016-Apr-22 11:34N 18°18' W 064°51'  
Track history (hours):
 
Tides and Currents Weather Stations Pressure Air Temp Water Temp Dewpoint Dewpoint Depression Visibility Wind Speed Wind Dir Waves Ship Positions

Provincetown III

Owner: MYSTIC FERRY LEASING LLC, BOSTON, MA. More information available from US FCC via Universal Licensing System and Coast Guard Vessel Documentation Center.

Last reported at 2016-May-01 21:33 UTC. Time now 2016-May-02 21:17 UTC.
Position N 18°23' W 064°43'.

Length 30 m; draft 2 m.

Type: Passenger vessel. MMSI: 366954420.

Date/timePositionNaut miles runAvg speedWind from/ knotsBaromVisibWave heightAir tempDewpointWater temp
2016-May-01 21:33N 18°23' W 064°43'10 4.2
2016-May-01 19:15N 18°18' W 064°52'1515.2
2016-May-01 18:15N 18°24' W 064°37'15 8.7
2016-May-01 16:33N 18°18' W 064°52'4 2.0
2016-May-01 14:33N 18°21' W 064°48'3 2.6
2016-May-01 13:33N 18°19' W 064°50'13 0.8
2016-Apr-30 21:10N 18°24' W 064°38'1524.4
2016-Apr-30 20:33N 18°18' W 064°52'1 0.5
2016-Apr-30 19:07N 18°18' W 064°53'1425.4
2016-Apr-30 18:34N 18°23' W 064°39'9 4.3
2016-Apr-30 16:33N 18°21' W 064°47'1 0.5
2016-Apr-30 14:33N 18°20' W 064°48'11 9.3
2016-Apr-30 13:23N 18°24' W 064°37'12 6.6
2016-Apr-30 11:34N 18°20' W 064°49'13 0.9
2016-Apr-29 21:21N 18°25' W 064°37'17 7.5
2016-Apr-29 19:08N 18°18' W 064°53'1424.3
2016-Apr-29 18:33N 18°23' W 064°39'7 3.3
2016-Apr-29 16:33N 18°22' W 064°45'1 0.5
2016-Apr-29 14:33N 18°22' W 064°46'9 7.1
2016-Apr-29 13:21N 18°24' W 064°38'13 7.2
2016-Apr-29 11:33N 18°19' W 064°50'13 0.9
2016-Apr-28 21:10N 18°24' W 064°37'1524.5
2016-Apr-28 20:33N 18°18' W 064°52'0 0.2
2016-Apr-28 19:11N 18°18' W 064°52'1524.4
2016-Apr-28 18:34N 18°24' W 064°38'9 4.6
2016-Apr-28 16:34N 18°22' W 064°47'4 1.9
2016-Apr-28 14:33N 18°19' W 064°50'1311.0
2016-Apr-28 13:24N 18°24' W 064°38'13 6.9
2016-Apr-28 11:33N 18°19' W 064°50'14 1.0
2016-Apr-27 21:10N 18°24' W 064°37'1524.4
2016-Apr-27 20:33N 18°18' W 064°51'1 0.9
2016-Apr-27 19:11N 18°18' W 064°52'1524.5
2016-Apr-27 18:33N 18°24' W 064°38'8 4.1
2016-Apr-27 16:33N 18°22' W 064°46'5 2.4
2016-Apr-27 14:33N 18°19' W 064°50'12 9.8
2016-Apr-27 13:21N 18°24' W 064°38'13 7.5
2016-Apr-27 11:34N 18°18' W 064°51'14 1.0
2016-Apr-26 21:12N 18°24' W 064°38'15 7.5
2016-Apr-26 19:10N 18°18' W 064°52'1524.3
2016-Apr-26 18:34N 18°24' W 064°38'7 3.4
2016-Apr-26 16:34N 18°23' W 064°45'6 2.8
2016-Apr-26 14:32N 18°19' W 064°50'1310.9
2016-Apr-26 13:22N 18°24' W 064°38'14 7.6
2016-Apr-26 11:34N 18°19' W 064°51'14 0.9
2016-Apr-25 21:06N 18°24' W 064°38'1425.0
2016-Apr-25 20:33N 18°18' W 064°51'2 1.1
2016-Apr-25 19:11N 18°18' W 064°52'1624.4
2016-Apr-25 18:32N 18°24' W 064°37'8 4.0
2016-Apr-25 16:34N 18°23' W 064°45'4 2.0
2016-Apr-25 14:33N 18°20' W 064°49'11 9.2
2016-Apr-25 13:21N 18°24' W 064°38'12 6.7
2016-Apr-25 11:34N 18°20' W 064°49'12 0.9
2016-Apr-24 21:26N 18°24' W 064°38'15 6.7
2016-Apr-24 19:10N 18°18' W 064°53'1524.5
2016-Apr-24 18:33N 18°24' W 064°38'1313.4
2016-Apr-24 17:33N 18°18' W 064°51'0 0.4
2016-Apr-24 16:33N 18°18' W 064°52'5 2.4
2016-Apr-24 14:34N 18°21' W 064°47'5 4.8
2016-Apr-24 13:33N 18°18' W 064°52'15 0.9
2016-Apr-23 21:10N 18°24' W 064°37'1423.1
2016-Apr-23 20:34N 18°18' W 064°51'2 0.5
2016-Apr-23 17:09N 18°18' W 064°53'1424.2
2016-Apr-23 16:34N 18°23' W 064°39'1413.5
2016-Apr-23 15:33N 18°18' W 064°52'3 3.2
2016-Apr-23 14:33N 18°20' W 064°49'1210.9
2016-Apr-23 13:30N 18°24' W 064°38'11 5.8
2016-Apr-23 11:34N 18°20' W 064°49'11 0.8
2016-Apr-22 21:14N 18°24' W 064°38'15 7.3
2016-Apr-22 19:09N 18°18' W 064°53'1524.8
2016-Apr-22 18:34N 18°23' W 064°38'7 3.7
2016-Apr-22 16:33N 18°22' W 064°46'2 1.1
2016-Apr-22 14:34N 18°23' W 064°44'2 2.2
2016-Apr-22 13:34N 18°23' W 064°41'10 5.1
2016-Apr-22 11:34N 18°18' W 064°51'  

Dump ship's entire track history